Time;durP1;ratioP1;P1;durP2;ratioP2;P2;SDS_P1;SDS_P2;PMS_P1;PMS_P2;Temp;Humidity;BMP_temperature;BMP_pressure;BME280_temperature;BME280_humidity;BME280_pressure;Samples;Min_cycle;Max_cycle;Signal;HPM_P1;HPM_P2
2023/04/07 00:01:22;;;;;;;5.07;2.30;;;5.10;99.90;;;;;;5006905;28;20649;-74
2023/04/07 00:03:47;;;;;;;5.15;2.35;;;5.10;99.90;;;;;;4996841;28;20030;-75
2023/04/07 00:06:13;;;;;;;7.15;2.10;;;5.10;99.90;;;;;;4999532;28;20081;-75
2023/04/07 00:08:39;;;;;;;5.00;2.22;;;5.00;99.90;;;;;;4984266;28;20022;-74
2023/04/07 00:11:05;;;;;;;3.10;2.00;;;5.00;99.90;;;;;;4998102;28;20042;-75
2023/04/07 00:13:30;;;;;;;4.95;2.33;;;5.00;99.90;;;;;;4998003;28;20520;-75
2023/04/07 00:15:56;;;;;;;5.35;2.72;;;4.90;99.90;;;;;;4999890;28;20044;-75
2023/04/07 00:18:21;;;;;;;3.25;1.98;;;4.90;99.90;;;;;;5002170;28;20022;-76
2023/04/07 00:20:47;;;;;;;5.65;2.10;;;4.90;99.90;;;;;;5007310;28;20404;-74
2023/04/07 00:23:13;;;;;;;4.80;1.90;;;4.90;99.90;;;;;;5003727;28;20484;-75
2023/04/07 00:25:38;;;;;;;4.30;2.38;;;4.90;99.90;;;;;;5003293;28;20037;-74
2023/04/07 00:28:04;;;;;;;7.93;2.92;;;4.90;99.90;;;;;;5004058;28;20026;-75
2023/04/07 00:30:30;;;;;;;5.47;2.22;;;4.80;99.90;;;;;;5015530;28;20544;-75
2023/04/07 00:32:55;;;;;;;2.20;1.77;;;4.80;99.90;;;;;;5000718;28;20026;-76
2023/04/07 00:35:21;;;;;;;5.50;2.53;;;4.80;99.90;;;;;;5003967;28;20492;-75
2023/04/07 00:37:47;;;;;;;4.93;2.40;;;4.80;99.90;;;;;;5002030;28;20021;-75
2023/04/07 00:40:12;;;;;;;3.67;2.08;;;4.80;99.90;;;;;;5011618;28;20025;-75
2023/04/07 00:42:38;;;;;;;3.70;2.25;;;4.70;99.90;;;;;;5004771;28;20464;-75
2023/04/07 00:45:05;;;;;;;4.25;2.08;;;4.70;99.90;;;;;;5027134;28;20121;-75
2023/04/07 00:47:30;;;;;;;4.80;2.22;;;4.70;99.90;;;;;;5002244;28;20032;-75
2023/04/07 00:49:56;;;;;;;4.68;2.15;;;4.70;99.90;;;;;;5007937;28;20026;-75
2023/04/07 00:52:27;;;;;;;4.55;2.15;;;4.60;99.90;;;;;;5015026;28;20057;-74
2023/04/07 00:54:58;;;;;;;3.80;2.10;;;4.60;99.90;;;;;;5002585;28;20075;-74
2023/04/07 00:57:24;;;;;;;5.82;2.40;;;4.60;99.90;;;;;;4999168;28;20148;-74
2023/04/07 00:59:51;;;;;;;5.00;1.95;;;4.50;99.90;;;;;;5008643;28;20029;-74
2023/04/07 01:02:36;;;;;;;5.82;1.98;;;4.50;99.90;;;;;;5013307;28;20029;-74
2023/04/07 01:05:09;;;;;;;2.88;2.05;;;4.60;99.90;;;;;;5003085;28;20049;-75
2023/04/07 01:07:57;;;;;;;4.38;2.13;;;4.50;99.90;;;;;;5010558;28;20107;-74
2023/04/07 01:10:53;;;;;;;5.65;2.60;;;4.50;99.90;;;;;;5003602;28;20038;-74
2023/04/07 01:13:30;;;;;;;4.47;1.88;;;4.50;99.90;;;;;;4983595;28;20142;-74
2023/04/07 01:15:59;;;;;;;3.97;2.30;;;4.50;99.90;;;;;;5002122;28;20022;-74
2023/04/07 01:18:37;;;;;;;6.25;2.33;;;4.50;99.90;;;;;;4999686;28;20026;-74
2023/04/07 01:21:13;;;;;;;4.15;2.45;;;4.50;99.90;;;;;;4990098;28;20066;-74
2023/04/07 01:24:01;;;;;;;3.33;2.00;;;4.50;99.90;;;;;;5001902;28;20057;-75
2023/04/07 01:26:34;;;;;;;2.67;1.85;;;4.50;99.90;;;;;;5006939;28;20065;-74
2023/04/07 01:29:30;;;;;;;5.63;2.50;;;4.50;99.90;;;;;;5033735;28;20051;-74
2023/04/07 01:31:58;;;;;;;7.22;2.17;;;4.50;99.90;;;;;;4985740;28;20053;-75
2023/04/07 01:34:26;;;;;;;8.75;1.85;;;4.50;99.90;;;;;;4997692;28;20030;-75
2023/04/07 01:36:54;;;;;;;2.80;1.80;;;4.50;99.90;;;;;;5002780;28;20551;-75
2023/04/07 01:39:20;;;;;;;3.08;2.00;;;4.50;99.90;;;;;;4999821;28;20033;-75
2023/04/07 01:41:46;;;;;;;3.42;1.90;;;4.50;99.90;;;;;;5021299;28;20053;-74
2023/04/07 01:44:13;;;;;;;4.78;1.90;;;4.40;99.90;;;;;;5000123;28;20030;-73
2023/04/07 01:46:39;;;;;;;3.40;1.73;;;4.40;99.90;;;;;;5014387;28;20088;-75
2023/04/07 01:49:05;;;;;;;4.75;2.00;;;4.40;99.90;;;;;;5000226;28;20038;-75
2023/04/07 01:51:32;;;;;;;4.65;2.08;;;4.30;99.90;;;;;;5000866;28;20037;-75
2023/04/07 01:54:00;;;;;;;3.45;1.88;;;4.30;99.90;;;;;;5000217;28;20037;-74
2023/04/07 01:56:26;;;;;;;3.47;2.38;;;4.30;99.90;;;;;;5030116;28;20489;-74
2023/04/07 01:58:51;;;;;;;2.70;1.92;;;4.30;99.90;;;;;;5000668;28;20029;-75
2023/04/07 02:01:17;;;;;;;4.85;2.10;;;4.30;99.90;;;;;;5001389;28;20042;-75
2023/04/07 02:03:54;;;;;;;4.10;2.03;;;4.30;99.90;;;;;;5000284;28;20501;-75
2023/04/07 02:06:26;;;;;;;5.38;1.88;;;4.30;99.90;;;;;;5012300;28;20055;-74
2023/04/07 02:09:10;;;;;;;3.83;1.83;;;4.30;99.90;;;;;;5007808;28;20022;-74
2023/04/07 02:11:37;;;;;;;3.40;1.63;;;4.30;99.90;;;;;;4999525;28;20129;-75
2023/04/07 02:14:05;;;;;;;4.72;1.70;;;4.30;99.90;;;;;;5000785;28;20444;-75
2023/04/07 02:16:31;;;;;;;3.15;1.70;;;4.30;99.90;;;;;;5015410;28;20401;-74
2023/04/07 02:18:58;;;;;;;7.38;1.90;;;4.30;99.90;;;;;;5000921;28;20030;-75
2023/04/07 02:21:25;;;;;;;3.28;1.80;;;4.20;99.90;;;;;;4989565;28;20136;-74
2023/04/07 02:23:51;;;;;;;4.65;1.88;;;4.30;99.90;;;;;;4982019;28;20093;-75
2023/04/07 02:26:17;;;;;;;3.58;1.77;;;4.20;99.90;;;;;;4998388;28;20053;-75
2023/04/07 02:28:42;;;;;;;2.60;1.58;;;4.20;99.90;;;;;;5002014;28;20046;-75
2023/04/07 02:31:08;;;;;;;3.53;2.00;;;4.20;99.90;;;;;;4999087;28;20566;-75
2023/04/07 02:33:33;;;;;;;4.80;1.67;;;4.20;99.90;;;;;;4998306;28;20065;-75
2023/04/07 02:35:59;;;;;;;4.45;2.05;;;4.20;99.90;;;;;;5003314;28;20040;-75
2023/04/07 02:38:25;;;;;;;2.35;1.83;;;4.20;99.90;;;;;;5000941;28;20057;-75
2023/04/07 02:40:50;;;;;;;8.63;1.80;;;4.20;99.90;;;;;;4999041;28;20083;-75
2023/04/07 02:43:17;;;;;;;7.53;1.70;;;4.20;99.90;;;;;;5002193;28;20099;-74
2023/04/07 02:45:43;;;;;;;5.72;2.00;;;4.20;99.90;;;;;;4993206;28;20042;-74
2023/04/07 02:48:09;;;;;;;6.10;2.33;;;4.20;99.90;;;;;;4995826;28;20038;-74
2023/04/07 02:50:34;;;;;;;3.00;1.75;;;4.10;99.90;;;;;;4998963;28;20477;-75
2023/04/07 02:53:00;;;;;;;6.00;1.90;;;4.10;99.90;;;;;;5001957;28;20774;-74
2023/04/07 02:55:26;;;;;;;3.58;1.75;;;4.10;99.90;;;;;;4983457;28;20085;-75
2023/04/07 02:57:51;;;;;;;2.92;1.35;;;4.10;99.90;;;;;;4991678;28;20068;-75
2023/04/07 03:00:17;;;;;;;5.60;1.75;;;4.10;99.90;;;;;;5000928;28;20528;-75
2023/04/07 03:02:42;;;;;;;2.03;1.52;;;4.10;99.90;;;;;;4999919;28;20029;-75
2023/04/07 03:05:08;;;;;;;4.28;2.05;;;4.00;99.90;;;;;;4999648;28;20401;-74
2023/04/07 03:07:34;;;;;;;3.90;1.58;;;4.00;99.90;;;;;;5000600;28;20113;-75
2023/04/07 03:09:59;;;;;;;5.97;1.80;;;4.00;99.90;;;;;;4999334;28;20044;-74
2023/04/07 03:12:25;;;;;;;3.58;1.70;;;3.90;99.90;;;;;;5005484;28;20436;-74
2023/04/07 03:14:51;;;;;;;8.35;1.83;;;3.90;99.90;;;;;;5000574;28;20104;-74
2023/04/07 03:17:17;;;;;;;4.13;1.45;;;3.90;99.90;;;;;;4998796;28;20029;-74
2023/04/07 03:19:42;;;;;;;3.20;1.55;;;3.90;99.90;;;;;;4999229;28;20057;-75
2023/04/07 03:22:08;;;;;;;3.90;1.50;;;3.90;99.90;;;;;;4993937;28;20138;-75
2023/04/07 03:24:33;;;;;;;5.13;1.88;;;3.90;99.90;;;;;;5032193;28;20041;-74
2023/04/07 03:27:00;;;;;;;7.75;1.63;;;3.90;99.90;;;;;;4999536;28;20021;-75
2023/04/07 03:29:26;;;;;;;8.82;2.08;;;3.90;99.90;;;;;;4988911;28;20042;-75
2023/04/07 03:31:52;;;;;;;2.72;1.55;;;3.90;99.90;;;;;;4997472;28;20443;-75
2023/04/07 03:34:17;;;;;;;4.43;1.50;;;3.80;99.90;;;;;;4999039;28;20065;-74
2023/04/07 03:36:43;;;;;;;6.95;1.60;;;3.80;99.90;;;;;;5000367;28;20038;-75
2023/04/07 03:39:08;;;;;;;4.20;1.67;;;3.80;99.90;;;;;;5000315;28;20060;-76
2023/04/07 03:41:34;;;;;;;4.15;1.35;;;3.80;99.90;;;;;;5000258;28;20120;-75
2023/04/07 03:43:59;;;;;;;2.92;1.48;;;3.80;99.90;;;;;;4998450;28;20021;-75
2023/04/07 03:46:25;;;;;;;4.90;1.80;;;3.80;99.90;;;;;;4993652;28;20086;-74
2023/04/07 03:48:51;;;;;;;4.28;1.73;;;3.80;99.90;;;;;;4998607;28;20140;-74
2023/04/07 03:51:17;;;;;;;4.88;1.70;;;3.80;99.90;;;;;;4999789;28;20087;-74
2023/04/07 03:53:43;;;;;;;5.95;1.50;;;3.80;99.90;;;;;;5002610;28;22027;-74
2023/04/07 03:56:08;;;;;;;5.43;2.13;;;3.80;99.90;;;;;;5004913;28;20033;-75
2023/04/07 03:58:34;;;;;;;4.18;1.70;;;3.80;99.90;;;;;;4997003;28;20137;-74
2023/04/07 04:01:00;;;;;;;4.35;1.65;;;3.80;99.90;;;;;;5013830;28;20021;-74
2023/04/07 04:03:26;;;;;;;4.70;1.70;;;3.80;99.90;;;;;;4989681;28;20173;-74
2023/04/07 04:05:51;;;;;;;4.47;1.60;;;3.80;99.90;;;;;;4992285;28;20050;-74
2023/04/07 04:08:17;;;;;;;5.25;1.80;;;3.80;99.90;;;;;;4984871;28;20401;-75
2023/04/07 04:10:42;;;;;;;3.88;1.70;;;3.80;99.90;;;;;;4997588;28;20090;-74
2023/04/07 04:13:08;;;;;;;4.45;1.77;;;3.70;99.90;;;;;;4995551;28;20034;-74
2023/04/07 04:15:34;;;;;;;4.15;1.90;;;3.70;99.90;;;;;;5018620;28;20033;-74
2023/04/07 04:18:00;;;;;;;5.65;1.70;;;3.60;99.90;;;;;;5012224;28;20149;-75
2023/04/07 04:20:25;;;;;;;2.60;1.42;;;3.60;99.90;;;;;;5004386;28;20048;-74
2023/04/07 04:22:51;;;;;;;5.90;1.77;;;3.60;99.90;;;;;;4993638;28;20378;-75
2023/04/07 04:25:16;;;;;;;5.15;1.88;;;3.50;99.90;;;;;;4996940;28;20030;-74
2023/04/07 04:27:42;;;;;;;3.80;1.50;;;3.50;99.90;;;;;;4986488;28;20121;-75
2023/04/07 04:30:08;;;;;;;3.85;1.77;;;3.50;99.90;;;;;;4995854;28;20033;-75
2023/04/07 04:32:34;;;;;;;5.03;1.63;;;3.50;99.90;;;;;;5000296;28;20150;-75
2023/04/07 04:35:00;;;;;;;4.93;1.77;;;3.40;99.90;;;;;;5006023;28;20124;-74
2023/04/07 04:37:27;;;;;;;6.95;1.70;;;3.40;99.90;;;;;;5003783;28;20105;-75
2023/04/07 04:39:52;;;;;;;5.88;2.00;;;3.30;99.90;;;;;;5003293;28;20022;-75
2023/04/07 04:42:18;;;;;;;5.65;1.70;;;3.30;99.90;;;;;;5003067;28;20040;-74
2023/04/07 04:44:44;;;;;;;4.03;1.70;;;3.30;99.90;;;;;;4994376;28;20030;-74
2023/04/07 04:47:10;;;;;;;5.03;1.77;;;3.30;99.90;;;;;;5002147;28;20038;-74
2023/04/07 04:49:35;;;;;;;10.52;1.88;;;3.30;99.90;;;;;;5008910;28;20475;-75
2023/04/07 04:52:01;;;;;;;4.68;1.42;;;3.30;99.90;;;;;;5002455;28;20040;-74
2023/04/07 04:54:26;;;;;;;2.55;1.38;;;3.30;99.90;;;;;;5008445;28;20119;-75
2023/04/07 04:56:52;;;;;;;6.25;1.88;;;3.30;99.90;;;;;;5018391;28;20029;-75
2023/04/07 04:59:18;;;;;;;3.35;1.38;;;3.30;99.90;;;;;;5002569;28;20061;-74
2023/04/07 05:01:43;;;;;;;7.85;1.80;;;3.30;99.90;;;;;;5003531;28;20037;-75
2023/04/07 05:04:09;;;;;;;5.07;1.50;;;3.30;99.90;;;;;;5002459;28;20104;-75
2023/04/07 05:06:35;;;;;;;5.53;1.70;;;3.30;99.90;;;;;;5016301;28;20057;-75
2023/04/07 05:09:00;;;;;;;9.10;1.65;;;3.20;99.90;;;;;;5018168;28;20102;-74
2023/04/07 05:11:26;;;;;;;7.05;2.05;;;3.20;99.90;;;;;;4996310;28;20071;-74
2023/04/07 05:13:52;;;;;;;3.55;1.40;;;3.20;99.90;;;;;;5005568;28;20033;-75
2023/04/07 05:16:17;;;;;;;5.00;1.75;;;3.20;99.90;;;;;;5001713;28;20041;-75
2023/04/07 05:18:43;;;;;;;4.13;1.45;;;3.20;99.90;;;;;;5002884;28;20030;-75
2023/04/07 05:21:08;;;;;;;4.50;1.80;;;3.20;99.90;;;;;;4995151;28;20030;-75
2023/04/07 05:23:35;;;;;;;4.38;1.70;;;3.20;99.90;;;;;;5001601;28;20039;-75
2023/04/07 05:26:00;;;;;;;4.47;1.65;;;3.20;99.90;;;;;;4999726;28;20026;-75
2023/04/07 05:28:26;;;;;;;5.47;1.67;;;3.20;99.90;;;;;;5002841;28;20026;-75
2023/04/07 05:30:52;;;;;;;4.85;1.95;;;3.20;99.90;;;;;;4999276;28;20517;-75
2023/04/07 05:33:18;;;;;;;6.22;1.40;;;3.20;99.90;;;;;;4996016;28;20023;-75
2023/04/07 05:35:44;;;;;;;4.55;1.60;;;3.20;99.90;;;;;;4998635;28;20038;-75
2023/04/07 05:38:11;;;;;;;4.25;1.52;;;3.30;99.90;;;;;;5000705;28;20372;-74
2023/04/07 05:40:36;;;;;;;4.50;1.90;;;3.30;99.90;;;;;;5002409;28;20182;-75
2023/04/07 05:43:02;;;;;;;7.30;1.58;;;3.30;99.90;;;;;;5001417;28;20451;-75
2023/04/07 05:45:27;;;;;;;3.17;1.60;;;3.30;99.90;;;;;;4993021;28;20428;-75
2023/04/07 05:47:53;;;;;;;5.15;1.85;;;3.40;99.90;;;;;;4993392;28;20049;-74
2023/04/07 05:50:19;;;;;;;9.48;1.95;;;3.40;99.90;;;;;;4986573;28;20037;-74
2023/04/07 05:52:45;;;;;;;7.45;1.77;;;3.40;99.90;;;;;;5002123;28;20030;-75
2023/04/07 05:55:11;;;;;;;5.32;1.70;;;3.50;99.90;;;;;;5000976;28;20060;-74
2023/04/07 05:57:36;;;;;;;8.43;2.00;;;3.70;99.90;;;;;;5001087;28;20057;-74
2023/04/07 06:00:03;;;;;;;4.25;1.52;;;3.70;99.90;;;;;;5029512;28;20136;-74
2023/04/07 06:02:29;;;;;;;4.18;1.80;;;3.80;99.90;;;;;;4999471;28;20030;-75
2023/04/07 06:04:55;;;;;;;3.92;1.80;;;4.00;99.90;;;;;;4993178;28;20036;-75
2023/04/07 06:07:20;;;;;;;8.65;2.25;;;4.20;99.90;;;;;;4998636;28;20053;-75
2023/04/07 06:09:46;;;;;;;4.90;1.88;;;4.40;99.90;;;;;;4998012;28;20092;-75
2023/04/07 06:12:12;;;;;;;2.80;1.83;;;4.60;99.90;;;;;;4999302;28;20104;-76
2023/04/07 06:14:38;;;;;;;4.45;1.88;;;4.70;99.90;;;;;;5007417;28;20021;-75
2023/04/07 06:17:03;;;;;;;8.00;1.80;;;5.20;99.90;;;;;;5010030;28;20042;-75
2023/04/07 06:19:29;;;;;;;5.05;1.90;;;5.50;99.90;;;;;;5011504;28;20029;-75
2023/04/07 06:21:55;;;;;;;7.82;2.13;;;5.90;99.90;;;;;;5002257;28;20492;-75
2023/04/07 06:24:23;;;;;;;4.95;2.10;;;6.20;99.90;;;;;;4990826;28;20065;-76
2023/04/07 06:26:50;;;;;;;14.40;3.03;;;6.40;99.90;;;;;;5026247;28;20029;-75
2023/04/07 06:29:16;;;;;;;8.43;2.70;;;6.60;99.90;;;;;;4998479;28;20487;-75
2023/04/07 06:31:42;;;;;;;5.43;1.70;;;7.20;99.90;;;;;;5004138;28;20029;-75
2023/04/07 06:34:07;;;;;;;4.55;1.75;;;7.40;99.90;;;;;;5015038;28;20033;-76
2023/04/07 06:36:33;;;;;;;6.28;2.13;;;7.70;99.90;;;;;;5001313;28;20073;-75
2023/04/07 06:38:59;;;;;;;8.52;3.38;;;8.60;99.90;;;;;;5013002;28;20598;-75
2023/04/07 06:41:24;;;;;;;35.72;17.70;;;9.40;99.90;;;;;;5006702;28;20045;-75
2023/04/07 06:43:50;;;;;;;9.32;3.40;;;10.30;99.90;;;;;;5000256;28;20037;-75
2023/04/07 06:46:17;;;;;;;5.18;1.65;;;11.20;96.60;;;;;;5001823;28;20029;-76
2023/04/07 06:48:42;;;;;;;6.57;1.73;;;11.60;93.10;;;;;;4994895;28;20037;-75
2023/04/07 06:51:08;;;;;;;3.80;1.50;;;12.40;88.10;;;;;;5003314;28;20057;-76
2023/04/07 06:53:34;;;;;;;5.88;1.80;;;13.20;78.90;;;;;;4998655;28;20026;-76
2023/04/07 06:56:05;;;;;;;4.18;1.30;;;14.50;68.00;;;;;;4997558;28;20029;-76
2023/04/07 06:58:30;;;;;;;6.38;1.25;;;14.90;60.40;;;;;;4995019;28;20037;-75
2023/04/07 07:00:56;;;;;;;4.72;1.52;;;15.30;56.80;;;;;;4999041;28;20075;-75
2023/04/07 07:03:21;;;;;;;3.85;1.55;;;15.30;56.00;;;;;;5018770;28;20033;-75
2023/04/07 07:05:47;;;;;;;8.90;1.83;;;15.40;58.00;;;;;;5014195;28;20077;-75
2023/04/07 07:08:12;;;;;;;4.07;1.20;;;15.50;56.30;;;;;;5016305;28;20096;-76
2023/04/07 07:10:38;;;;;;;8.02;1.73;;;15.40;56.10;;;;;;5005390;28;20124;-76
2023/04/07 07:13:04;;;;;;;6.80;1.48;;;15.60;56.30;;;;;;4995509;28;20046;-75
2023/04/07 07:15:29;;;;;;;7.05;1.52;;;15.70;55.00;;;;;;4981346;28;20072;-75
2023/04/07 07:17:55;;;;;;;3.70;1.60;;;15.20;57.90;;;;;;4993312;28;20131;-75
2023/04/07 07:20:22;;;;;;;6.75;2.13;;;14.70;60.70;;;;;;5001405;28;20037;-74
2023/04/07 07:22:48;;;;;;;5.38;1.50;;;14.30;65.40;;;;;;4997868;28;20033;-75
2023/04/07 07:25:14;;;;;;;6.25;1.70;;;14.10;69.80;;;;;;4998093;28;20046;-75
2023/04/07 07:27:39;;;;;;;75.03;33.28;;;14.30;69.00;;;;;;4999721;28;20061;-76
2023/04/07 07:30:05;;;;;;;6.82;2.80;;;14.20;70.40;;;;;;4999677;28;20497;-75
2023/04/07 07:32:31;;;;;;;4.68;1.70;;;13.90;74.10;;;;;;4995326;28;20034;-76
2023/04/07 07:34:58;;;;;;;6.00;2.00;;;13.80;76.00;;;;;;4998368;28;20049;-76
2023/04/07 07:37:24;;;;;;;4.13;1.50;;;13.70;81.00;;;;;;4996443;28;20061;-76
2023/04/07 07:39:49;;;;;;;7.80;1.90;;;13.70;78.00;;;;;;4997431;28;20075;-75
2023/04/07 07:42:15;;;;;;;7.07;1.63;;;13.70;80.40;;;;;;5000902;28;20036;-76
2023/04/07 07:44:41;;;;;;;4.53;1.88;;;14.30;77.50;;;;;;4997193;28;20844;-75
2023/04/07 07:47:06;;;;;;;5.40;1.55;;;16.00;66.30;;;;;;4988662;28;20072;-75
2023/04/07 07:49:32;;;;;;;4.18;1.50;;;17.50;54.80;;;;;;4980287;28;20038;-75
2023/04/07 07:51:58;;;;;;;9.20;1.90;;;19.80;48.10;;;;;;4978770;28;20489;-75
2023/04/07 07:54:24;;;;;;;7.22;1.70;;;22.20;42.70;;;;;;4976813;28;20030;-75
2023/04/07 07:56:50;;;;;;;6.60;1.48;;;24.30;38.50;;;;;;4985883;28;20030;-75
2023/04/07 07:59:16;;;;;;;5.97;1.23;;;25.90;35.80;;;;;;4980371;28;20082;-76
2023/04/07 08:01:41;;;;;;;5.30;1.80;;;27.70;33.40;;;;;;5006275;28;20212;-75
2023/04/07 08:04:07;;;;;;;6.90;1.60;;;29.10;31.50;;;;;;4993427;28;20037;-76
2023/04/07 08:06:33;;;;;;;6.88;1.60;;;30.10;29.20;;;;;;4993049;28;21306;-76
2023/04/07 08:08:59;;;;;;;3.50;1.35;;;30.80;28.70;;;;;;4991737;28;20041;-76
2023/04/07 08:11:24;;;;;;;3.85;1.23;;;31.40;28.10;;;;;;4993390;28;20076;-75
2023/04/07 08:13:50;;;;;;;4.50;1.40;;;31.90;27.80;;;;;;4993365;28;20022;-75
2023/04/07 08:16:16;;;;;;;5.72;1.98;;;32.90;26.80;;;;;;4991708;28;20036;-76
2023/04/07 08:18:41;;;;;;;5.68;2.40;;;33.10;26.90;;;;;;4989527;28;20109;-76
2023/04/07 08:21:07;;;;;;;6.78;2.40;;;33.30;26.70;;;;;;4999731;28;20625;-75
2023/04/07 08:23:33;;;;;;;4.88;1.85;;;33.80;25.90;;;;;;4996989;28;20037;-75
2023/04/07 08:25:58;;;;;;;4.80;1.67;;;33.70;25.70;;;;;;4996527;28;20022;-76
2023/04/07 08:28:25;;;;;;;3.83;1.38;;;34.20;26.30;;;;;;5000286;28;20557;-76
2023/04/07 08:30:51;;;;;;;5.55;1.63;;;34.80;26.70;;;;;;5000139;28;20151;-76
2023/04/07 08:33:16;;;;;;;6.13;1.30;;;35.00;25.10;;;;;;5000787;28;20505;-76
2023/04/07 08:35:42;;;;;;;4.47;1.10;;;35.70;25.40;;;;;;5000058;28;20476;-76
2023/04/07 08:38:08;;;;;;;3.83;1.20;;;35.70;24.90;;;;;;4998642;28;20064;-75
2023/04/07 08:40:34;;;;;;;4.57;1.30;;;35.40;24.80;;;;;;4988578;28;20089;-76
2023/04/07 08:43:02;;;;;;;2.75;0.93;;;35.40;24.40;;;;;;4994695;28;20026;-75
2023/04/07 08:45:30;;;;;;;3.55;1.20;;;35.80;24.90;;;;;;4997953;28;20114;-75
2023/04/07 08:48:03;;;;;;;4.15;1.20;;;36.20;24.70;;;;;;5001301;28;20022;-77
2023/04/07 08:50:29;;;;;;;5.47;1.15;;;36.30;24.50;;;;;;5000562;28;20037;-77
2023/04/07 08:52:56;;;;;;;1.95;0.80;;;36.70;24.10;;;;;;5000281;28;20025;-80
2023/04/07 08:55:22;;;;;;;2.72;1.08;;;37.20;24.20;;;;;;5001926;28;20488;-79
2023/04/07 08:57:48;;;;;;;4.03;1.00;;;36.90;24.10;;;;;;5003840;28;20509;-78
2023/04/07 09:00:15;;;;;;;2.20;0.98;;;37.00;23.40;;;;;;5001186;28;20041;-79
2023/04/07 09:02:44;;;;;;;3.78;1.10;;;36.80;23.70;;;;;;4996394;28;20025;-78
2023/04/07 09:05:11;;;;;;;5.88;0.90;;;37.20;23.80;;;;;;5000210;28;20026;-79
2023/04/07 09:07:39;;;;;;;3.63;0.90;;;37.00;23.50;;;;;;5005274;28;20500;-78
2023/04/07 09:10:05;;;;;;;3.53;0.73;;;36.80;23.10;;;;;;5004201;28;20021;-79
2023/04/07 09:12:32;;;;;;;2.75;0.60;;;36.50;23.40;;;;;;4985391;28;20052;-80
2023/04/07 09:14:59;;;;;;;0.90;0.50;;;37.10;21.80;;;;;;4985195;28;20524;-80
2023/04/07 09:17:28;;;;;;;2.97;0.65;;;35.10;23.50;;;;;;4985960;28;20192;-79
2023/04/07 09:19:58;;;;;;;1.10;0.40;;;34.40;24.10;;;;;;4985612;28;20038;-79
2023/04/07 09:22:41;;;;;;;1.77;0.43;;;34.30;23.50;;;;;;4984290;28;20041;-79
2023/04/07 09:25:17;;;;;;;2.03;0.50;;;34.80;24.00;;;;;;5036884;28;20370;-79
2023/04/07 09:27:55;;;;;;;2.22;0.70;;;31.70;23.80;;;;;;4989303;28;20109;-79
2023/04/07 09:30:20;;;;;;;1.83;0.40;;;33.20;24.40;;;;;;4985316;28;20045;-79
2023/04/07 09:32:46;;;;;;;2.78;0.70;;;34.10;25.20;;;;;;4985067;28;20034;-79
2023/04/07 09:35:12;;;;;;;1.73;0.40;;;35.80;23.40;;;;;;5016520;28;20053;-78
2023/04/07 09:37:37;;;;;;;2.30;0.57;;;36.80;23.00;;;;;;4984756;28;20541;-78
2023/04/07 09:40:04;;;;;;;1.20;0.40;;;36.80;22.40;;;;;;5001568;28;20513;-78
2023/04/07 09:42:31;;;;;;;2.45;0.63;;;33.40;21.90;;;;;;5004518;28;20367;-78
2023/04/07 09:44:58;;;;;;;1.55;0.55;;;30.90;24.60;;;;;;5004306;28;20105;-78
2023/04/07 09:47:28;;;;;;;1.75;0.40;;;28.80;28.50;;;;;;5004129;28;20034;-78
2023/04/07 09:49:55;;;;;;;0.90;0.40;;;28.20;29.20;;;;;;5004500;28;20060;-78
2023/04/07 09:52:52;;;;;;;2.80;0.50;;;29.00;27.20;;;;;;5003402;28;20030;-77
2023/04/07 09:55:21;;;;;;;1.05;0.32;;;29.40;28.50;;;;;;5003881;28;20117;-78
2023/04/07 09:57:49;;;;;;;3.42;0.45;;;31.50;26.60;;;;;;5002131;28;20026;-78
2023/04/07 10:00:15;;;;;;;2.00;0.40;;;30.60;26.30;;;;;;5001948;28;20067;-78
2023/04/07 10:02:41;;;;;;;2.63;0.57;;;31.70;25.40;;;;;;5000261;28;20156;-77
2023/04/07 10:05:08;;;;;;;1.67;0.40;;;33.00;24.80;;;;;;4984278;28;20038;-78
2023/04/07 10:07:34;;;;;;;2.85;0.63;;;32.20;24.70;;;;;;4984015;28;20048;-78
2023/04/07 10:10:00;;;;;;;2.28;0.70;;;32.00;25.20;;;;;;4989651;28;20758;-77
2023/04/07 10:12:26;;;;;;;1.48;0.60;;;32.20;25.60;;;;;;5003772;28;20032;-77
2023/04/07 10:14:53;;;;;;;3.60;0.40;;;31.60;24.60;;;;;;5003310;28;20030;-77
2023/04/07 10:17:21;;;;;;;2.45;0.60;;;32.80;25.00;;;;;;5000645;28;20108;-77
2023/04/07 10:19:47;;;;;;;1.83;0.60;;;33.80;22.70;;;;;;5002695;28;20389;-78
2023/04/07 10:22:14;;;;;;;1.73;0.55;;;34.90;23.70;;;;;;5001562;28;20539;-78
2023/04/07 10:24:49;;;;;;;1.35;0.68;;;37.00;23.30;;;;;;5001569;28;20056;-77
2023/04/07 10:27:21;;;;;;;2.58;0.40;;;38.00;22.90;;;;;;4997039;28;20513;-77
2023/04/07 10:29:51;;;;;;;1.45;0.40;;;36.50;21.90;;;;;;4983006;28;20092;-78
2023/04/07 10:32:17;;;;;;;2.42;0.50;;;38.30;23.20;;;;;;4988709;28;20417;-77
2023/04/07 10:35:03;;;;;;;2.03;0.60;;;36.60;21.40;;;;;;5002216;28;20088;-77
2023/04/07 10:37:28;;;;;;;1.58;0.60;;;37.00;22.70;;;;;;5001698;28;20073;-78
2023/04/07 10:40:20;;;;;;;2.22;0.60;;;37.00;22.20;;;;;;5001422;28;20068;-78
2023/04/07 10:42:46;;;;;;;1.75;0.75;;;33.30;21.40;;;;;;5002105;28;20397;-77
2023/04/07 10:45:12;;;;;;;1.77;0.70;;;33.70;23.70;;;;;;4987924;28;20038;-77
2023/04/07 10:47:56;;;;;;;2.05;0.60;;;34.30;23.30;;;;;;4982537;28;20121;-77
2023/04/07 10:50:23;;;;;;;2.13;0.63;;;34.40;23.00;;;;;;4998560;28;20391;-77
2023/04/07 10:53:07;;;;;;;2.00;0.60;;;33.90;22.50;;;;;;4986763;28;20034;-77
2023/04/07 10:55:36;;;;;;;2.20;0.65;;;32.70;23.80;;;;;;4982512;28;20098;-77
2023/04/07 10:58:17;;;;;;;2.67;0.68;;;34.10;24.60;;;;;;4989116;28;20084;-77
2023/04/07 11:01:02;;;;;;;2.60;0.57;;;35.40;23.40;;;;;;5001620;28;20045;-77
2023/04/07 11:03:33;;;;;;;2.03;0.63;;;35.40;22.60;;;;;;4999899;28;20156;-78
2023/04/07 11:06:03;;;;;;;3.65;0.80;;;33.30;23.70;;;;;;4987068;28;20073;-78
2023/04/07 11:08:36;;;;;;;3.13;0.77;;;30.20;25.00;;;;;;5002482;28;20530;-77
2023/04/07 11:11:08;;;;;;;3.22;0.60;;;26.90;27.00;;;;;;4998075;28;20050;-77
2023/04/07 11:13:47;;;;;;;1.40;0.50;;;24.30;30.10;;;;;;4982816;28;20117;-77
2023/04/07 11:16:15;;;;;;;1.63;0.40;;;22.90;36.00;;;;;;4995691;28;20037;-77
2023/04/07 11:18:42;;;;;;;1.08;0.43;;;25.00;27.70;;;;;;5034399;28;20391;-77
2023/04/07 11:21:08;;;;;;;2.55;0.45;;;28.00;25.40;;;;;;5033310;28;20037;-77
2023/04/07 11:23:38;;;;;;;0.85;0.20;;;29.70;22.90;;;;;;5009943;28;20773;-78
2023/04/07 11:26:04;;;;;;;1.75;0.50;;;31.20;23.70;;;;;;5021506;28;20832;-78
2023/04/07 11:28:30;;;;;;;1.80;0.50;;;31.90;25.20;;;;;;5012127;28;20030;-77
2023/04/07 11:30:57;;;;;;;2.30;0.40;;;32.20;24.60;;;;;;5001960;28;20030;-78
2023/04/07 11:33:26;;;;;;;1.80;0.40;;;30.40;26.30;;;;;;5002032;28;20113;-77
2023/04/07 11:35:55;;;;;;;4.93;0.80;;;28.30;26.70;;;;;;5002186;28;20064;-78
2023/04/07 11:38:26;;;;;;;4.25;0.70;;;26.00;28.30;;;;;;5001473;28;20021;-77
2023/04/07 11:40:52;;;;;;;1.33;0.40;;;24.20;30.60;;;;;;5002609;28;20117;-77
2023/04/07 11:43:22;;;;;;;2.50;0.60;;;22.40;31.90;;;;;;4992628;28;20041;-77
2023/04/07 11:46:08;;;;;;;1.83;0.65;;;20.10;34.30;;;;;;5000353;28;20033;-77
2023/04/07 11:48:35;;;;;;;2.55;0.60;;;18.80;37.60;;;;;;5002815;28;20080;-77
2023/04/07 11:51:02;;;;;;;3.35;0.82;;;18.70;38.30;;;;;;5003449;28;20069;-77
2023/04/07 11:53:38;;;;;;;1.88;0.55;;;19.60;38.20;;;;;;4988716;28;20086;-78
2023/04/07 11:56:17;;;;;;;2.30;0.50;;;20.50;35.90;;;;;;4982142;28;20038;-76
2023/04/07 11:58:50;;;;;;;1.75;0.40;;;20.70;37.80;;;;;;5033007;28;20433;-76
2023/04/07 12:01:16;;;;;;;0.82;0.40;;;20.30;36.30;;;;;;5002367;28;20049;-78
2023/04/07 12:03:57;;;;;;;1.10;0.50;;;20.70;39.50;;;;;;5002014;28;20025;-77
2023/04/07 12:06:33;;;;;;;0.82;0.50;;;21.40;40.20;;;;;;4996672;28;20113;-76
2023/04/07 12:09:00;;;;;;;0.93;0.40;;;22.30;38.00;;;;;;4981598;28;20054;-76
2023/04/07 12:11:26;;;;;;;1.58;0.32;;;23.20;33.00;;;;;;4998567;28;20449;-77
2023/04/07 12:13:52;;;;;;;1.08;0.38;;;23.20;36.40;;;;;;5007846;28;20470;-76
2023/04/07 12:16:19;;;;;;;0.88;0.38;;;24.00;31.00;;;;;;5020330;28;20029;-76
2023/04/07 12:18:44;;;;;;;1.45;0.60;;;24.10;28.90;;;;;;4984705;28;20397;-77
2023/04/07 12:21:10;;;;;;;2.17;0.43;;;24.10;31.70;;;;;;4984987;28;20098;-77
2023/04/07 12:23:35;;;;;;;1.10;0.38;;;23.80;33.70;;;;;;4984900;28;20033;-77
2023/04/07 12:26:01;;;;;;;1.50;0.35;;;23.90;31.70;;;;;;5011953;28;20114;-76
2023/04/07 12:28:27;;;;;;;1.02;0.40;;;23.70;30.30;;;;;;5021778;28;20104;-77
2023/04/07 12:30:54;;;;;;;2.00;0.43;;;22.60;30.70;;;;;;5005307;28;20065;-77
2023/04/07 12:33:20;;;;;;;1.60;0.52;;;21.70;33.40;;;;;;5004780;28;20034;-77
2023/04/07 12:35:45;;;;;;;2.25;0.40;;;20.80;35.00;;;;;;5003495;28;20641;-78
2023/04/07 12:38:11;;;;;;;0.65;0.20;;;20.30;35.80;;;;;;5001544;28;20034;-77
2023/04/07 12:40:37;;;;;;;0.30;0.20;;;20.00;32.70;;;;;;4996031;28;20397;-77
2023/04/07 12:43:04;;;;;;;2.35;0.40;;;20.40;35.20;;;;;;5000732;28;20045;-77
2023/04/07 12:45:30;;;;;;;1.77;0.50;;;20.60;35.60;;;;;;5003537;28;20029;-76
2023/04/07 12:47:57;;;;;;;1.20;0.38;;;21.00;34.10;;;;;;5005138;28;20118;-77
2023/04/07 12:50:24;;;;;;;3.90;0.40;;;21.80;32.70;;;;;;5004174;28;20036;-76
2023/04/07 12:52:50;;;;;;;1.13;0.30;;;22.10;31.00;;;;;;5002410;28;20026;-77
2023/04/07 12:55:16;;;;;;;2.75;0.50;;;22.30;29.50;;;;;;4994671;28;20026;-77